Time;durP1;ratioP1;P1;durP2;ratioP2;P2;SDS_P1;SDS_P2;PMS_P1;PMS_P2;Temp;Humidity;BMP_temperature;BMP_pressure;BME280_temperature;BME280_humidity;BME280_pressure;Samples;Min_cycle;Max_cycle;Signal;HPM_P1;HPM_P2
2022/09/16 00:00:55;;;;;;;;;;;;;;;12.25;100.00;95971.97;5076056;28;19961;-78
2022/09/16 00:03:21;;;;;;;;;;;;;;;12.26;100.00;95980.66;5076230;28;19955;-78
2022/09/16 00:05:49;;;;;;;;;;;;;;;12.27;100.00;95977.00;5075994;28;19965;-78
2022/09/16 00:08:16;;;;;;;;;;;;;;;12.27;100.00;95975.16;5075924;28;20434;-78
2022/09/16 00:10:42;;;;;;;;;;;;;;;12.29;100.00;95974.94;5076131;28;19949;-78
2022/09/16 00:13:09;;;;;;;;;;;;;;;12.29;100.00;95975.72;5075887;28;19959;-78
2022/09/16 00:15:35;;;;;;;;;;;;;;;12.29;100.00;95972.31;5076033;28;19952;-78
2022/09/16 00:18:01;;;;;;;;;;;;;;;12.30;100.00;95972.06;5075742;28;20456;-78
2022/09/16 00:20:27;;;;;;;;;;;;;;;12.31;100.00;95970.25;5075798;28;19965;-78
2022/09/16 00:22:53;;;;;;;;;;;;;;;12.30;100.00;95973.88;5076200;28;19949;-78
2022/09/16 00:25:19;;;;;;;;;;;;;;;12.31;100.00;95975.50;5075716;28;20401;-78
2022/09/16 00:27:47;;;;;;;;;;;;;;;12.31;100.00;95971.03;5075959;28;19962;-78
2022/09/16 00:30:13;;;;;;;;;;;;;;;12.30;100.00;95974.69;5060796;28;19975;-78
2022/09/16 00:32:39;;;;;;;;;;;;;;;12.31;100.00;95973.66;5075621;28;19955;-78
2022/09/16 00:35:05;;;;;;;;;;;;;;;12.31;100.00;95972.88;5075837;28;20008;-78
2022/09/16 00:37:32;;;;;;;;;;;;;;;12.30;100.00;95972.06;5075930;28;19956;-78
2022/09/16 00:39:57;;;;;;;;;;;;;;;12.30;100.00;95973.88;5075068;28;19966;-78
2022/09/16 00:42:23;;;;;;;;;;;;;;;12.30;100.00;95966.78;5075808;28;20050;-78
2022/09/16 00:44:51;;;;;;;;;;;;;;;12.30;100.00;95973.88;5074753;28;19957;-78
2022/09/16 00:47:22;;;;;;;;;;;;;;;12.30;100.00;95974.69;5075719;28;19965;-78
2022/09/16 00:49:49;;;;;;;;;;;;;;;12.31;100.00;95989.44;5074906;28;19971;-78
2022/09/16 00:52:16;;;;;;;;;;;;;;;12.31;100.00;95983.38;5075143;28;19955;-78
2022/09/16 00:54:42;;;;;;;;;;;;;;;12.30;100.00;95981.78;5075140;28;20026;-78
2022/09/16 00:57:09;;;;;;;;;;;;;;;12.30;100.00;95971.25;5057506;28;19960;-78
2022/09/16 00:59:37;;;;;;;;;;;;;;;12.28;100.00;95974.13;5074980;28;20402;-78
2022/09/16 01:02:07;;;;;;;;;;;;;;;12.26;100.00;95973.56;5075424;28;19954;-78
2022/09/16 01:04:54;;;;;;;;;;;;;;;12.25;100.00;95977.25;5074978;28;19958;-78
2022/09/16 01:07:26;;;;;;;;;;;;;;;12.26;100.00;95978.03;5074917;28;19957;-78
2022/09/16 01:09:52;;;;;;;;;;;;;;;12.26;100.00;95980.66;5074810;28;19970;-77
2022/09/16 01:12:18;;;;;;;;;;;;;;;12.26;100.00;95981.44;5074918;28;19966;-78
2022/09/16 01:14:53;;;;;;;;;;;;;;;12.28;100.00;95973.34;5075047;28;20395;-78
2022/09/16 01:17:27;;;;;;;;;;;;;;;12.28;100.00;95973.34;5075068;28;20343;-77
2022/09/16 01:20:11;;;;;;;;;;;;;;;12.28;100.00;95974.13;5074604;28;19964;-78
2022/09/16 01:22:57;;;;;;;;;;;;;;;12.28;100.00;95974.13;5075367;28;19962;-78
2022/09/16 01:25:27;;;;;;;;;;;;;;;12.29;100.00;95967.06;5073945;28;19958;-77
2022/09/16 01:27:53;;;;;;;;;;;;;;;12.29;100.00;95970.47;5074602;28;19958;-78
2022/09/16 01:30:30;;;;;;;;;;;;;;;12.31;100.00;95967.59;5074337;28;19973;-78
2022/09/16 01:32:56;;;;;;;;;;;;;;;12.32;100.00;95964.72;5074503;28;19956;-78
2022/09/16 01:35:40;;;;;;;;;;;;;;;12.33;100.00;95958.44;5074456;28;20412;-78
2022/09/16 01:38:09;;;;;;;;;;;;;;;12.34;100.00;95969.75;5074696;28;19963;-78
2022/09/16 01:40:48;;;;;;;;;;;;;;;12.34;100.00;95962.66;5074397;28;19960;-78
2022/09/16 01:43:20;;;;;;;;;;;;;;;12.36;100.00;95947.44;5065582;28;19956;-78
2022/09/16 01:45:54;;;;;;;;;;;;;;;12.38;100.00;95952.44;5074259;28;19968;-78
2022/09/16 01:48:24;;;;;;;;;;;;;;;12.40;100.00;95958.25;5074101;28;19966;-78
2022/09/16 01:50:49;;;;;;;;;;;;;;;12.40;100.00;95955.63;5073992;28;20005;-78
2022/09/16 01:53:20;;;;;;;;;;;;;;;12.41;100.00;95959.88;5056375;28;20424;-78
2022/09/16 01:56:07;;;;;;;;;;;;;;;12.42;100.00;95955.41;5073184;28;19955;-78
2022/09/16 01:58:39;;;;;;;;;;;;;;;12.41;100.00;95959.06;5074472;28;20401;-78
2022/09/16 02:01:09;;;;;;;;;;;;;;;12.42;100.00;95956.19;5073925;28;19958;-78
2022/09/16 02:03:38;;;;;;;;;;;;;;;12.41;100.00;95951.97;5074393;28;19957;-78
2022/09/16 02:06:07;;;;;;;;;;;;;;;12.40;100.00;95960.91;5073343;28;19957;-78
2022/09/16 02:08:36;;;;;;;;;;;;;;;12.40;100.00;95960.91;5073863;28;20340;-78
2022/09/16 02:11:05;;;;;;;;;;;;;;;12.39;100.00;95954.06;5074177;28;20307;-77
2022/09/16 02:13:36;;;;;;;;;;;;;;;12.38;100.00;95957.72;5055839;28;19954;-78
2022/09/16 02:16:09;;;;;;;;;;;;;;;12.36;100.00;95954.53;5074060;28;19964;-78
2022/09/16 02:18:37;;;;;;;;;;;;;;;12.34;100.00;95951.34;5073958;28;19969;-78
2022/09/16 02:21:05;;;;;;;;;;;;;;;12.34;100.00;95948.72;5073717;28;19959;-78
2022/09/16 02:23:35;;;;;;;;;;;;;;;12.33;100.00;95958.44;5073702;28;19956;-78
2022/09/16 02:26:04;;;;;;;;;;;;;;;12.31;100.00;95954.47;5073903;28;19961;-78
2022/09/16 02:28:32;;;;;;;;;;;;;;;12.30;100.00;95960.75;5055429;28;19950;-77
2022/09/16 02:31:00;;;;;;;;;;;;;;;12.28;100.00;95960.97;5055871;28;19968;-78
2022/09/16 02:33:32;;;;;;;;;;;;;;;12.25;100.00;95945.69;5073419;28;19993;-78
2022/09/16 02:36:00;;;;;;;;;;;;;;;12.24;100.00;95945.94;5073653;28;19968;-78
2022/09/16 02:38:30;;;;;;;;;;;;;;;12.24;100.00;95956.44;5073381;28;20034;-78
2022/09/16 02:40:58;;;;;;;;;;;;;;;12.23;100.00;95950.41;5073531;28;20411;-78
2022/09/16 02:43:25;;;;;;;;;;;;;;;12.24;100.00;95953.81;5073403;28;19958;-78
2022/09/16 02:45:55;;;;;;;;;;;;;;;12.22;100.00;95959.34;5073691;28;19959;-77
2022/09/16 02:48:21;;;;;;;;;;;;;;;12.21;100.00;95959.56;5073412;28;19967;-77
2022/09/16 02:50:52;;;;;;;;;;;;;;;12.21;100.00;95957.72;5055377;28;20359;-77
2022/09/16 02:53:35;;;;;;;;;;;;;;;12.19;100.00;95952.69;5073595;28;19960;-77
2022/09/16 02:56:05;;;;;;;;;;;;;;;12.20;100.00;95953.53;5055643;28;20340;-77
2022/09/16 02:58:30;;;;;;;;;;;;;;;12.19;100.00;95946.66;5073220;28;19960;-78
2022/09/16 03:00:57;;;;;;;;;;;;;;;12.17;100.00;95948.72;5073456;28;20309;-78
2022/09/16 03:03:23;;;;;;;;;;;;;;;12.18;100.00;95951.13;5073545;28;19964;-78
2022/09/16 03:06:02;;;;;;;;;;;;;;;12.17;100.00;95954.78;5055409;28;19962;-78
2022/09/16 03:08:28;;;;;;;;;;;;;;;12.17;100.00;95948.72;5067744;28;19963;-78
2022/09/16 03:10:57;;;;;;;;;;;;;;;12.16;100.00;95955.03;5077352;28;19973;-78
2022/09/16 03:13:46;;;;;;;;;;;;;;;12.18;100.00;95951.13;5042815;28;19954;-78
2022/09/16 03:16:18;;;;;;;;;;;;;;;12.19;100.00;95944.03;5076854;28;19963;-77
2022/09/16 03:19:12;;;;;;;;;;;;;;;12.21;100.00;95941.94;5077074;28;19960;-78
2022/09/16 03:21:38;;;;;;;;;;;;;;;12.23;100.00;95939.88;5068850;28;19962;-78
2022/09/16 03:24:10;;;;;;;;;;;;;;;12.25;100.00;95942.28;5077266;28;20012;-78
2022/09/16 03:26:58;;;;;;;;;;;;;;;12.27;100.00;95934.94;5077178;28;19957;-78
2022/09/16 03:29:29;;;;;;;;;;;;;;;12.29;100.00;95938.91;5066341;28;19964;-78
2022/09/16 03:32:04;;;;;;;;;;;;;;;12.32;100.00;95935.78;5059017;28;19958;-78
2022/09/16 03:34:36;;;;;;;;;;;;;;;12.34;100.00;95936.34;5063176;28;19953;-78
2022/09/16 03:37:06;;;;;;;;;;;;;;;12.35;100.00;95930.06;5076922;28;19970;-78
2022/09/16 03:39:33;;;;;;;;;;;;;;;12.37;100.00;95933.25;5076229;28;19956;-78
2022/09/16 03:42:00;;;;;;;;;;;;;;;12.37;100.00;95930.63;5076734;28;19961;-78
2022/09/16 03:44:36;;;;;;;;;;;;;;;12.37;100.00;95933.25;5076612;28;19958;-78
2022/09/16 03:47:02;;;;;;;;;;;;;;;12.35;100.00;95927.44;5066840;28;20299;-78
2022/09/16 03:49:29;;;;;;;;;;;;;;;12.35;100.00;95929.28;5076257;28;19981;-78
2022/09/16 03:51:55;;;;;;;;;;;;;;;12.35;100.00;95935.34;5076842;28;19953;-78
2022/09/16 03:54:21;;;;;;;;;;;;;;;12.34;100.00;95927.69;5076548;28;19953;-78
2022/09/16 03:56:47;;;;;;;;;;;;;;;12.34;100.00;95936.34;5076535;28;20325;-78
2022/09/16 03:59:13;;;;;;;;;;;;;;;12.35;100.00;95937.97;5076165;28;19961;-78
2022/09/16 04:01:39;;;;;;;;;;;;;;;12.34;100.00;95933.72;5076190;28;19954;-78
2022/09/16 04:04:05;;;;;;;;;;;;;;;12.33;100.00;95931.34;5058549;28;20044;-78
2022/09/16 04:06:31;;;;;;;;;;;;;;;12.26;100.00;95934.13;5076452;28;20397;-78
2022/09/16 04:08:59;;;;;;;;;;;;;;;12.20;100.00;95935.13;5058579;28;19983;-78
2022/09/16 04:11:28;;;;;;;;;;;;;;;12.20;100.00;95935.13;5075971;28;19959;-78
2022/09/16 04:13:54;;;;;;;;;;;;;;;12.22;100.00;95934.84;5076379;28;20412;-78
2022/09/16 04:16:20;;;;;;;;;;;;;;;12.23;100.00;95920.69;5058219;28;19987;-78
2022/09/16 04:18:47;;;;;;;;;;;;;;;12.25;100.00;95916.00;5040580;28;19965;-78
2022/09/16 04:21:13;;;;;;;;;;;;;;;12.25;100.00;95921.25;5075810;28;19956;-78
2022/09/16 04:23:39;;;;;;;;;;;;;;;12.27;100.00;95916.53;5075951;28;19964;-78
2022/09/16 04:26:05;;;;;;;;;;;;;;;12.27;100.00;95909.44;5075889;28;20000;-78
2022/09/16 04:28:32;;;;;;;;;;;;;;;12.28;100.00;95902.34;5058079;28;19957;-78
2022/09/16 04:30:59;;;;;;;;;;;;;;;12.27;100.00;95904.19;5075526;28;19970;-78
2022/09/16 04:33:26;;;;;;;;;;;;;;;12.29;100.00;95902.13;5076326;28;19959;-78
2022/09/16 04:35:52;;;;;;;;;;;;;;;12.31;100.00;95894.78;5075537;28;20411;-78
2022/09/16 04:38:18;;;;;;;;;;;;;;;12.35;100.00;95889.84;5075473;28;19964;-78
2022/09/16 04:40:44;;;;;;;;;;;;;;;12.37;100.00;95893.03;5075935;28;20402;-78
2022/09/16 04:43:10;;;;;;;;;;;;;;;12.38;100.00;95898.03;5075375;28;19963;-78
2022/09/16 04:45:35;;;;;;;;;;;;;;;12.39;100.00;95889.13;5075862;28;19959;-78
2022/09/16 04:48:01;;;;;;;;;;;;;;;12.39;100.00;95888.31;5075884;28;20008;-78
2022/09/16 04:50:27;;;;;;;;;;;;;;;12.40;100.00;95892.53;5075320;28;19970;-78
2022/09/16 04:52:53;;;;;;;;;;;;;;;12.41;100.00;95888.88;5075487;28;19958;-78
2022/09/16 04:55:22;;;;;;;;;;;;;;;12.42;100.00;95893.09;5075460;28;19957;-78
2022/09/16 04:57:48;;;;;;;;;;;;;;;12.44;100.00;95898.91;5057615;28;20342;-78
2022/09/16 05:00:14;;;;;;;;;;;;;;;12.44;100.00;95898.91;5075027;28;19979;-78
2022/09/16 05:02:42;;;;;;;;;;;;;;;12.47;100.00;95902.88;5074978;28;19978;-78
2022/09/16 05:05:08;;;;;;;;;;;;;;;12.49;100.00;95900.78;5075129;28;19956;-78
2022/09/16 05:07:34;;;;;;;;;;;;;;;12.50;100.00;95911.06;5057418;28;19959;-78
2022/09/16 05:10:00;;;;;;;;;;;;;;;12.51;100.00;95912.66;5074814;28;20590;-78
2022/09/16 05:12:26;;;;;;;;;;;;;;;12.53;100.00;95917.69;5075539;28;20315;-79
2022/09/16 05:14:52;;;;;;;;;;;;;;;12.54;100.00;95914.03;5075229;28;19991;-78
2022/09/16 05:17:18;;;;;;;;;;;;;;;12.56;100.00;95925.09;5056675;28;20031;-79
2022/09/16 05:19:43;;;;;;;;;;;;;;;12.55;100.00;95918.22;5074764;28;20051;-78
2022/09/16 05:22:09;;;;;;;;;;;;;;;12.56;100.00;95919.84;5063585;28;20383;-78
2022/09/16 05:24:35;;;;;;;;;;;;;;;12.56;100.00;95907.47;5057163;28;20024;-78
2022/09/16 05:27:01;;;;;;;;;;;;;;;12.57;100.00;95908.25;5056961;28;19961;-78
2022/09/16 05:29:27;;;;;;;;;;;;;;;12.56;100.00;95912.75;5074639;28;19977;-78
2022/09/16 05:31:53;;;;;;;;;;;;;;;12.56;100.00;95920.63;5056530;28;19955;-78
2022/09/16 05:34:21;;;;;;;;;;;;;;;12.57;100.00;95916.16;5074479;28;19968;-78
2022/09/16 05:36:49;;;;;;;;;;;;;;;12.58;100.00;95917.75;5074287;28;19959;-78
2022/09/16 05:39:17;;;;;;;;;;;;;;;12.59;100.00;95909.59;5073659;28;19954;-78
2022/09/16 05:41:46;;;;;;;;;;;;;;;12.59;100.00;95904.34;5055562;28;19956;-78
2022/09/16 05:44:13;;;;;;;;;;;;;;;12.59;100.00;95908.81;5074251;28;20288;-78
2022/09/16 05:46:39;;;;;;;;;;;;;;;12.59;100.00;95909.59;5074483;28;19963;-78
2022/09/16 05:49:05;;;;;;;;;;;;;;;12.58;100.00;95913.28;5073335;28;19963;-78
2022/09/16 05:51:31;;;;;;;;;;;;;;;12.60;100.00;95910.41;5074323;28;19957;-78
2022/09/16 05:53:58;;;;;;;;;;;;;;;12.60;100.00;95915.69;5043062;28;20001;-78
2022/09/16 05:56:25;;;;;;;;;;;;;;;12.61;100.00;95912.00;5035244;28;19957;-77
2022/09/16 05:58:52;;;;;;;;;;;;;;;12.60;100.00;95915.69;5073901;28;20418;-77
2022/09/16 06:01:22;;;;;;;;;;;;;;;12.60;100.00;95920.94;5074031;28;19950;-77
2022/09/16 06:03:48;;;;;;;;;;;;;;;12.57;100.00;95911.69;5073873;28;19959;-77
2022/09/16 06:06:25;;;;;;;;;;;;;;;12.56;100.00;95909.31;5065227;28;19958;-77
2022/09/16 06:08:55;;;;;;;;;;;;;;;12.52;100.00;95910.84;5073911;28;19950;-77
2022/09/16 06:11:21;;;;;;;;;;;;;;;12.48;100.00;95909.72;5074115;28;19959;-77
2022/09/16 06:13:51;;;;;;;;;;;;;;;12.47;100.00;95916.81;5074051;28;19958;-77
2022/09/16 06:16:17;;;;;;;;;;;;;;;12.47;100.00;95924.69;5074565;28;19994;-77
2022/09/16 06:18:43;;;;;;;;;;;;;;;12.48;100.00;95925.50;5056233;28;19967;-77
2022/09/16 06:21:10;;;;;;;;;;;;;;;12.48;100.00;95928.94;5073633;28;20469;-77
2022/09/16 06:23:36;;;;;;;;;;;;;;;12.48;100.00;95928.13;5073972;28;20328;-77
2022/09/16 06:26:12;;;;;;;;;;;;;;;12.45;100.00;95926.81;5058083;28;19952;-76
2022/09/16 06:28:38;;;;;;;;;;;;;;;12.41;100.00;95923.06;5074286;28;19965;-76
2022/09/16 06:31:06;;;;;;;;;;;;;;;12.38;100.00;95929.56;5073462;28;19967;-76
2022/09/16 06:33:33;;;;;;;;;;;;;;;12.39;100.00;95922.50;5073652;28;19972;-76
2022/09/16 06:36:18;;;;;;;;;;;;;;;12.39;100.00;95928.56;5073565;28;19968;-77
2022/09/16 06:38:45;;;;;;;;;;;;;;;12.38;100.00;95920.91;5074013;28;19961;-77
2022/09/16 06:41:11;;;;;;;;;;;;;;;12.36;100.00;95917.72;5073788;28;19956;-76
2022/09/16 06:43:38;;;;;;;;;;;;;;;12.33;100.00;95926.09;5073042;28;19959;-76
2022/09/16 06:46:05;;;;;;;;;;;;;;;12.28;100.00;95920.75;5073479;28;20432;-75
2022/09/16 06:48:32;;;;;;;;;;;;;;;12.24;100.00;95927.53;5055682;28;19987;-74
2022/09/16 06:50:59;;;;;;;;;;;;;;;12.21;100.00;95926.19;5073292;28;19966;-75
2022/09/16 06:53:25;;;;;;;;;;;;;;;12.21;100.00;95928.81;5073637;28;19954;-76
2022/09/16 06:55:51;;;;;;;;;;;;;;;12.21;100.00;95930.66;5073458;28;20042;-76
2022/09/16 06:58:17;;;;;;;;;;;;;;;12.17;100.00;95930.31;5073400;28;19956;-76
2022/09/16 07:00:43;;;;;;;;;;;;;;;12.17;100.00;95922.44;5073253;28;20005;-75
2022/09/16 07:03:09;;;;;;;;;;;;;;;12.15;100.00;95927.94;5073386;28;20440;-74
2022/09/16 07:05:35;;;;;;;;;;;;;;;12.12;100.00;95936.31;5073179;28;19959;-74
2022/09/16 07:08:01;;;;;;;;;;;;;;;12.09;100.00;95943.88;5073331;28;19960;-75
2022/09/16 07:10:27;;;;;;;;;;;;;;;12.07;100.00;95938.84;5073055;28;20068;-75
2022/09/16 07:12:52;;;;;;;;;;;;;;;12.05;100.00;95929.59;5073289;28;20473;-76
2022/09/16 07:15:18;;;;;;;;;;;;;;;12.04;100.00;95938.53;5073401;28;20292;-76
2022/09/16 07:17:44;;;;;;;;;;;;;;;12.03;100.00;95936.94;5072668;28;20013;-76
2022/09/16 07:20:10;;;;;;;;;;;;;;;12.02;100.00;95940.63;5073204;28;20059;-76
2022/09/16 07:22:36;;;;;;;;;;;;;;;12.02;100.00;95932.72;5073374;28;19960;-75
2022/09/16 07:25:02;;;;;;;;;;;;;;;12.01;100.00;95934.56;5073001;28;20393;-74
2022/09/16 07:27:29;;;;;;;;;;;;;;;12.01;100.00;95939.81;5073479;28;19992;-75
2022/09/16 07:29:55;;;;;;;;;;;;;;;12.02;100.00;95944.03;5055496;28;19972;-75
2022/09/16 07:32:21;;;;;;;;;;;;;;;12.02;100.00;95949.28;5055441;28;20480;-76
2022/09/16 07:34:47;;;;;;;;;;;;;;;12.01;100.00;95954.78;5073474;28;20307;-76
2022/09/16 07:37:13;;;;;;;;;;;;;;;12.00;100.00;95945.31;5072989;28;20012;-77
2022/09/16 07:39:39;;;;;;;;;;;;;;;11.98;100.00;95938.44;5073304;28;19957;-77
2022/09/16 07:42:05;;;;;;;;;;;;;;;11.97;100.00;95942.13;5072910;28;19962;-76
2022/09/16 07:44:31;;;;;;;;;;;;;;;11.98;100.00;95950.78;5073159;28;20346;-76
2022/09/16 07:46:57;;;;;;;;;;;;;;;11.96;100.00;95958.91;5073087;28;20042;-76
2022/09/16 07:49:23;;;;;;;;;;;;;;;11.95;100.00;95946.81;5055022;28;19963;-76
2022/09/16 07:51:49;;;;;;;;;;;;;;;11.93;100.00;95953.34;5073369;28;20036;-75
2022/09/16 07:54:16;;;;;;;;;;;;;;;11.92;100.00;95957.00;5073860;28;19953;-74
2022/09/16 07:56:43;;;;;;;;;;;;;;;11.90;100.00;95970.38;5076260;28;19985;-74
2022/09/16 07:59:14;;;;;;;;;;;;;;;11.91;100.00;95963.31;5076540;28;19955;-75
2022/09/16 08:01:40;;;;;;;;;;;;;;;11.94;100.00;95970.69;5076164;28;19971;-75
2022/09/16 08:04:06;;;;;;;;;;;;;;;11.95;100.00;95975.72;5076298;28;19962;-74
2022/09/16 08:06:32;;;;;;;;;;;;;;;11.96;100.00;95969.41;5076074;28;19999;-75
2022/09/16 08:08:59;;;;;;;;;;;;;;;11.97;100.00;95980.75;5076593;28;19951;-75
2022/09/16 08:11:26;;;;;;;;;;;;;;;11.97;100.00;95975.50;5076693;28;20315;-76
2022/09/16 08:13:52;;;;;;;;;;;;;;;12.02;100.00;95972.16;5076289;28;19950;-76
2022/09/16 08:16:20;;;;;;;;;;;;;;;12.09;100.00;95975.41;5058062;28;20342;-76
2022/09/16 08:18:47;;;;;;;;;;;;;;;12.13;100.00;95982.56;5057843;28;19962;-76
2022/09/16 08:21:14;;;;;;;;;;;;;;;12.16;100.00;95989.19;5076540;28;19950;-76
2022/09/16 08:23:41;;;;;;;;;;;;;;;12.18;100.00;95987.13;5057949;28;19959;-76
2022/09/16 08:26:09;;;;;;;;;;;;;;;12.17;100.00;95988.16;5076120;28;19952;-76
2022/09/16 08:28:36;;;;;;;;;;;;;;;12.20;100.00;95995.56;5075249;28;19962;-76
2022/09/16 08:31:03;;;;;;;;;;;;;;;12.25;100.00;95993.00;5075888;28;19978;-76
2022/09/16 08:33:29;;;;;;;;;;;;;;;12.28;100.00;95997.78;5075761;28;19961;-76
2022/09/16 08:36:03;;;;;;;;;;;;;;;12.33;100.00;95999.72;5075600;28;19953;-76
2022/09/16 08:38:30;;;;;;;;;;;;;;;12.39;100.00;96010.06;5075679;28;19956;-76
2022/09/16 08:41:03;;;;;;;;;;;;;;;12.44;100.00;96008.56;5075915;28;19964;-77
2022/09/16 08:43:38;;;;;;;;;;;;;;;12.44;100.00;96003.28;5075883;28;19954;-76
2022/09/16 08:46:30;;;;;;;;;;;;;;;12.48;100.00;96004.41;5075572;28;19956;-75
2022/09/16 08:49:12;;;;;;;;;;;;;;;12.54;100.00;96011.34;5071834;28;20401;-76
2022/09/16 08:51:38;;;;;;;;;;;;;;;12.61;100.00;96013.81;5057878;28;19969;-76
2022/09/16 08:54:26;;;;;;;;;;;;;;;12.66;100.00;96008.59;5075811;28;20419;-76
2022/09/16 08:56:58;;;;;;;;;;;;;;;12.71;100.00;96011.31;5075121;28;19958;-76
2022/09/16 08:59:26;;;;;;;;;;;;;;;12.70;100.00;96018.41;5057611;28;19960;-76
2022/09/16 09:02:15;;;;;;;;;;;;;;;12.72;100.00;96007.63;5075373;28;19969;-76
2022/09/16 09:04:42;;;;;;;;;;;;;;;12.73;100.00;96009.25;5074941;28;19956;-77
2022/09/16 09:07:13;;;;;;;;;;;;;;;12.72;100.00;96012.91;5074899;28;19963;-77
2022/09/16 09:09:42;;;;;;;;;;;;;;;12.74;100.00;96023.97;5074158;28;19956;-77
2022/09/16 09:12:21;;;;;;;;;;;;;;;12.74;100.00;96019.50;5075257;28;19969;-77
2022/09/16 09:14:58;;;;;;;;;;;;;;;12.77;100.00;96018.25;5075194;28;19955;-77
2022/09/16 09:17:32;;;;;;;;;;;;;;;12.71;100.00;96011.31;5075377;28;20291;-77
2022/09/16 09:20:11;;;;;;;;;;;;;;;12.63;100.00;96014.34;5056940;28;19967;-77
2022/09/16 09:22:57;;;;;;;;;;;;;;;12.54;100.00;96011.34;5075098;28;19960;-77
2022/09/16 09:25:26;;;;;;;;;;;;;;;12.53;100.00;96012.38;5075294;28;19950;-77
2022/09/16 09:28:11;;;;;;;;;;;;;;;12.54;100.00;96011.34;5074535;28;20419;-77
2022/09/16 09:30:39;;;;;;;;;;;;;;;12.55;100.00;96007.66;5074488;28;19970;-76
2022/09/16 09:33:08;;;;;;;;;;;;;;;12.57;100.00;96010.84;5074419;28;19954;-76
2022/09/16 09:35:52;;;;;;;;;;;;;;;12.56;100.00;96009.25;5074536;28;19956;-76
2022/09/16 09:38:37;;;;;;;;;;;;;;;12.58;100.00;96009.81;5074634;28;20294;-77
2022/09/16 09:41:10;;;;;;;;;;;;;;;12.60;100.00;96020.91;5074584;28;19970;-76
2022/09/16 09:43:40;;;;;;;;;;;;;;;12.66;100.00;96005.97;5074623;28;19957;-77
2022/09/16 09:46:09;;;;;;;;;;;;;;;12.72;100.00;95999.75;5074750;28;20308;-77
2022/09/16 09:48:41;;;;;;;;;;;;;;;12.80;100.00;96013.28;5074172;28;19954;-77
2022/09/16 09:51:16;;;;;;;;;;;;;;;12.89;100.00;96007.59;5074379;28;19960;-77
2022/09/16 09:53:45;;;;;;;;;;;;;;;13.00;100.00;96011.97;5064828;28;19957;-77
2022/09/16 09:56:35;;;;;;;;;;;;;;;13.12;100.00;96010.03;5073947;28;19962;-77
2022/09/16 09:59:24;;;;;;;;;;;;;;;13.23;100.00;96012.75;5063330;28;19965;-77
2022/09/16 10:01:54;;;;;;;;;;;;;;;13.30;100.00;96011.59;5036409;28;20397;-77
2022/09/16 10:04:19;;;;;;;;;;;;;;;13.30;100.00;96011.59;5074360;28;20338;-77
2022/09/16 10:06:47;;;;;;;;;;;;;;;13.30;100.00;96016.06;5074369;28;19965;-77
2022/09/16 10:09:14;;;;;;;;;;;;;;;13.22;100.00;96009.34;5073800;28;19951;-77
2022/09/16 10:11:48;;;;;;;;;;;;;;;13.16;100.00;96016.38;5074556;28;20433;-77
2022/09/16 10:14:25;;;;;;;;;;;;;;;13.09;100.00;96017.63;5056585;28;19961;-77
2022/09/16 10:16:52;;;;;;;;;;;;;;;13.07;100.00;96017.84;5073080;28;19974;-77
2022/09/16 10:19:23;;;;;;;;;;;;;;;13.03;100.00;96019.38;5073706;28;20311;-77
2022/09/16 10:21:52;;;;;;;;;;;;;;;12.99;99.70;96010.38;5072872;28;20313;-77
2022/09/16 10:24:34;;;;;;;;;;;;;;;12.98;98.56;96001.69;5073628;28;19952;-77
2022/09/16 10:27:01;;;;;;;;;;;;;;;12.98;100.00;96006.16;5074353;28;19963;-77
2022/09/16 10:29:27;;;;;;;;;;;;;;;12.95;100.00;96011.91;5073619;28;19951;-77
2022/09/16 10:31:54;;;;;;;;;;;;;;;12.96;99.09;96010.88;5073761;28;20038;-77
2022/09/16 10:34:33;;;;;;;;;;;;;;;13.01;100.00;96008.28;5074090;28;19962;-77
2022/09/16 10:37:04;;;;;;;;;;;;;;;13.00;100.00;96012.75;5073476;28;19954;-77
2022/09/16 10:39:31;;;;;;;;;;;;;;;12.95;98.29;96012.69;5073508;28;20364;-77
2022/09/16 10:41:57;;;;;;;;;;;;;;;12.94;100.00;96023.47;5073602;28;19966;-77
2022/09/16 10:44:26;;;;;;;;;;;;;;;12.90;99.51;96012.63;5073494;28;19957;-77
2022/09/16 10:47:04;;;;;;;;;;;;;;;12.90;100.00;96015.25;5073849;28;20300;-77
2022/09/16 10:49:34;;;;;;;;;;;;;;;12.89;97.90;96021.56;5073382;28;19980;-77
2022/09/16 10:52:08;;;;;;;;;;;;;;;12.91;97.40;96014.22;5055419;28;19974;-77
2022/09/16 10:54:33;;;;;;;;;;;;;;;12.97;99.24;96022.97;5073343;28;20326;-77
2022/09/16 10:56:59;;;;;;;;;;;;;;;13.05;100.00;96022.56;5073978;28;19954;-77
2022/09/16 10:59:25;;;;;;;;;;;;;;;13.14;100.00;96022.94;5073239;28;19953;-77
2022/09/16 11:02:11;;;;;;;;;;;;;;;13.17;99.75;96022.47;5055460;28;19982;-78
2022/09/16 11:04:40;;;;;;;;;;;;;;;13.16;98.84;96021.63;5071813;28;19958;-78
2022/09/16 11:07:09;;;;;;;;;;;;;;;13.19;100.00;96030.91;5072443;28;19961;-78
2022/09/16 11:09:44;;;;;;;;;;;;;;;13.18;100.00;96019.56;5073937;28;19955;-78
2022/09/16 11:12:36;;;;;;;;;;;;;;;13.21;98.25;96034.09;5041226;28;19969;-78
2022/09/16 11:15:17;;;;;;;;;;;;;;;13.17;97.23;96036.41;5042279;28;19956;-78
2022/09/16 11:17:56;;;;;;;;;;;;;;;13.14;99.66;96028.97;5072944;28;19989;-78
2022/09/16 11:20:25;;;;;;;;;;;;;;;13.11;96.76;96021.59;5073778;28;19965;-78
2022/09/16 11:22:56;;;;;;;;;;;;;;;13.10;93.40;96020.00;5073059;28;19970;-78
2022/09/16 11:25:39;;;;;;;;;;;;;;;13.12;97.37;96025.81;5073626;28;19951;-78
2022/09/16 11:28:17;;;;;;;;;;;;;;;13.10;90.17;96016.56;5055728;28;19958;-78
2022/09/16 11:31:10;;;;;;;;;;;;;;;13.16;96.44;96024.28;5076780;28;19968;-78
2022/09/16 11:33:36;;;;;;;;;;;;;;;13.20;90.26;96011.41;5066088;28;19955;-78
2022/09/16 11:36:10;;;;;;;;;;;;;;;13.29;91.25;96023.16;5076986;28;20000;-78
2022/09/16 11:38:45;;;;;;;;;;;;;;;13.31;88.38;96015.00;5059867;28;19978;-78
2022/09/16 11:41:10;;;;;;;;;;;;;;;13.32;90.83;96027.94;5076595;28;20325;-78
2022/09/16 11:43:52;;;;;;;;;;;;;;;13.39;94.01;96020.63;5058684;28;19944;-78
2022/09/16 11:46:33;;;;;;;;;;;;;;;13.45;91.91;96013.59;5076682;28;19960;-78
2022/09/16 11:49:05;;;;;;;;;;;;;;;13.48;91.84;96018.38;5076541;28;19962;-78
2022/09/16 11:51:46;;;;;;;;;;;;;;;13.50;89.81;96015.47;5076785;28;19964;-78
2022/09/16 11:54:19;;;;;;;;;;;;;;;13.52;88.20;96018.66;5076754;28;20429;-78
2022/09/16 11:56:45;;;;;;;;;;;;;;;13.58;87.46;96018.47;5076520;28;19981;-78
2022/09/16 11:59:13;;;;;;;;;;;;;;;13.67;82.79;95999.59;5076672;28;19955;-78
2022/09/16 12:01:50;;;;;;;;;;;;;;;13.73;85.97;96019.69;5076309;28;19955;-78
2022/09/16 12:04:23;;;;;;;;;;;;;;;13.84;89.68;96015.31;5076804;28;20038;-79
2022/09/16 12:06:52;;;;;;;;;;;;;;;13.91;89.63;96010.63;5076937;28;19963;-79
2022/09/16 12:09:23;;;;;;;;;;;;;;;13.92;85.94;96001.69;5076392;28;19950;-79
2022/09/16 12:11:51;;;;;;;;;;;;;;;13.95;86.74;95996.72;5076206;28;19963;-79
2022/09/16 12:14:22;;;;;;;;;;;;;;;13.97;89.83;96013.06;5076789;28;19957;-79
2022/09/16 12:17:10;;;;;;;;;;;;;;;13.95;87.13;96001.97;5060975;28;19980;-79
2022/09/16 12:19:59;;;;;;;;;;;;;;;13.93;87.77;96011.19;5076070;28;19961;-79
2022/09/16 12:22:33;;;;;;;;;;;;;;;13.85;88.35;96012.41;5065375;28;20428;-79
2022/09/16 12:25:07;;;;;;;;;;;;;;;13.75;85.74;96018.41;5076169;28;19954;-79
2022/09/16 12:27:40;;;;;;;;;;;;;;;13.70;85.61;96009.66;5076095;28;19955;-79
2022/09/16 12:30:22;;;;;;;;;;;;;;;13.68;86.29;96017.00;5076006;28;19954;-80
2022/09/16 12:33:05;;;;;;;;;;;;;;;13.71;81.60;95975.16;5076036;28;19971;-79
2022/09/16 12:35:39;;;;;;;;;;;;;;;13.76;86.74;96014.72;5061597;28;19954;-79
2022/09/16 12:38:11;;;;;;;;;;;;;;;13.84;82.06;95979.22;5075672;28;20331;-79
2022/09/16 12:40:43;;;;;;;;;;;;;;;13.96;84.58;95997.50;5075243;28;19980;-79
2022/09/16 12:43:11;;;;;;;;;;;;;;;14.03;79.82;95963.81;5075317;28;19963;-79
2022/09/16 12:45:37;;;;;;;;;;;;;;;14.04;77.76;95961.97;5057802;28;19976;-79
2022/09/16 12:48:20;;;;;;;;;;;;;;;14.04;83.60;95986.50;5076035;28;20420;-79
2022/09/16 12:50:52;;;;;;;;;;;;;;;14.04;80.36;95972.53;5066459;28;19960;-79
2022/09/16 12:53:33;;;;;;;;;;;;;;;14.06;77.37;95965.94;5075675;28;19969;-79